Badlands National Park, SD

11:17 PM MDT on August 28, 2014 (GMT -0600)
RAWS PINNACLES SD US | Change Station
CLOSE
Current Station
Personal Weather Station
Location: Wall, SD
Elevation: 3080 ft
Nearby Weather Stations

Elev 3080 ft 43.88 °N, 102.24 °W | Updated 57 minutes ago

Clear
Clear
63 °F
Feels Like 63 °F
N
5
Wind Variable Wind from SW
Gusts 8.0 mph

Today
High -- | Low -- °F
--% Chance of Precip.
Yesterday
High -- | Low -- °F
Precip. -- in
6:06 AM 7:30 PM
Waxing Crescent, 12% visible
Pressure 29.83 in
Visibility 9.0 miles
Clouds Clear
Dew Point 58 °F
Humidity 85%
Rainfall 0.35 in
Snow Depth Not available.
UV 0 out of 12
Pollen 8.00 out of 12
Air Quality Not available.
Flu Activity Not available.
METAR KPHP 290455Z AUTO 30003KT 9SM CLR 17/16 A2987 RMK AO2 SLP100 T01670161

More Conditions Fewer Conditions

Pressure 29.83 in
Visibility 9.0 miles
Clouds Clear
Dew Point 58 °F
Humidity 85%
Rainfall 0.35 in
Snow Depth Not available.
UV 0 out of 12
Pollen 8.00 out of 12
Air Quality Not available.
Flu Activity Not available.
METAR KPHP 290455Z AUTO 30003KT 9SM CLR 17/16 A2987 RMK AO2 SLP100 T01670161

More Conditions Fewer Conditions

10-Day Weather Forecast

Almanac

Astronomy

Aug. 28, 2014 Rise Set
Actual Time 6:06 AM MDT 7:30 PM MDT
Civil Twilight 5:36 AM MDT 7:59 PM MDT
Nautical Twilight 5:00 AM MDT 8:35 PM MDT
Astronomical Twilight 4:22 AM MDT 9:14 PM MDT
Moon 9:08 AM MDT (8/28) 8:47 PM MDT (8/28)
Length of Visible Light 14h 23m
Length of Day
13h 23m
Tomorrow will be 2m 52s shorter.
Waxing Crescent, 12% of the Moon is Illuminated
Aug 29
Waxing Crescent
Sep 2
First Quarter
Sep 8
Full
Sep 15
Last Quarter
Sep 24
New

Yesterday's Extremes

State Highs State Lows

Community

WunderPhotos

Upload Photos

1,748,192 photos uploaded!

Nearby

Snow Depth

Station Depth Elevation
Blind Park 0 in 6890 ft

Earthquake Activity

City Distance Mag. Time & Date
No recent earthquake activity has been reported nearby.
Minimum magnitude displayed is 2.5.

Coastal Water Temperatures

Place Temperature
No Stations Reporting

Nearby Weather Stations